AFR279 LFPG-RJTT
Flight info
| Callsign | AFR279 |
|---|---|
| Flight time | N/A |
| Altitude | 30000 |
| Route | ATREX UT225 VESAN UL613 SOVAT L613 TLA DCT NALAN/M084F300 DCT 65N010W 74N020W/M085F320 80N040W 82N060W/N0490F320 82N080W 82N100W 81N120W DCT OMEKA DCT JUJXI/N0488F340 DCT MARCC R338 NATES/N0490F360 R220 NOGAL/N0492F370 R220 NANAC/N0484F380 Y810 AKRIT Y807 POLIX |
| Aircraft | B77W/H-L/S |
Departure
| Time | 2026-05-01 14:56 |
|---|---|
| Airport | Charles de Gaulle International Airport (LFPG) |
Arrival
| Time | N/A |
|---|---|
| Airport | Tokyo Haneda International Airport (RJTT) |
| Time | Latitude | Longitude | Altitude | Speed | Heading |
|---|---|---|---|---|---|
| 2026-05-01 14:10 | 49.00134 | 2.57626 | 358 ft | 0 kts | 356° |
| 2026-05-01 14:44 | 49.00108 | 2.57627 | 358 ft | 4 kts | 7° |
| 2026-05-01 14:44 | 49.00084 | 2.57619 | 360 ft | 4 kts | 25° |
| 2026-05-01 14:45 | 49.00064 | 2.57599 | 367 ft | 4 kts | 52° |
| 2026-05-01 14:45 | 49.00054 | 2.57564 | 366 ft | 0 kts | 85° |
| 2026-05-01 14:49 | 49.00055 | 2.57586 | 367 ft | 8 kts | 85° |
| 2026-05-01 14:50 | 49.00049 | 2.57702 | 363 ft | 8 kts | 115° |
| 2026-05-01 14:50 | 48.99976 | 2.57618 | 365 ft | 9 kts | 262° |
| 2026-05-01 14:51 | 48.99968 | 2.57488 | 359 ft | 13 kts | 266° |
| 2026-05-01 14:51 | 48.99949 | 2.57119 | 364 ft | 17 kts | 265° |
| 2026-05-01 14:52 | 48.99928 | 2.56762 | 366 ft | 17 kts | 265° |
| 2026-05-01 14:52 | 48.99919 | 2.56582 | 359 ft | 17 kts | 265° |
| 2026-05-01 14:52 | 48.99900 | 2.56224 | 361 ft | 17 kts | 265° |
| 2026-05-01 14:53 | 48.99891 | 2.56045 | 359 ft | 17 kts | 267° |
| 2026-05-01 14:53 | 48.99898 | 2.55883 | 361 ft | 15 kts | 272° |
| 2026-05-01 14:53 | 48.99849 | 2.55801 | 366 ft | 11 kts | 185° |
| 2026-05-01 14:53 | 48.99774 | 2.55804 | 364 ft | 9 kts | 178° |
| 2026-05-01 14:54 | 48.99736 | 2.55808 | 363 ft | 3 kts | 175° |
| 2026-05-01 14:54 | 48.99727 | 2.55809 | 361 ft | 0 kts | 173° |
| 2026-05-01 14:55 | 48.99721 | 2.55810 | 360 ft | 5 kts | 173° |
| 2026-05-01 14:55 | 48.99636 | 2.55826 | 363 ft | 13 kts | 168° |
| 2026-05-01 14:55 | 48.99606 | 2.55914 | 360 ft | 10 kts | 89° |
| 2026-05-01 14:55 | 48.99612 | 2.56035 | 361 ft | 27 kts | 85° |
| 2026-05-01 14:56 | 48.99649 | 2.56732 | 360 ft | 105 kts | 85° |
| 2026-05-01 14:56 | 48.99727 | 2.58224 | 366 ft | 176 kts | 85° |
| 2026-05-01 14:56 | 48.99784 | 2.60382 | 458 ft | 223 kts | 90° |
| 2026-05-01 14:56 | 48.99889 | 2.62829 | 1145 ft | 232 kts | 87° |
| 2026-05-01 14:57 | 49.00068 | 2.65274 | 2115 ft | 234 kts | 84° |
| 2026-05-01 14:57 | 49.00423 | 2.70331 | 2929 ft | 259 kts | 88° |
| 2026-05-01 14:57 | 49.00538 | 2.73136 | 3280 ft | 271 kts | 88° |
| 2026-05-01 14:58 | 49.00675 | 2.76025 | 3905 ft | 275 kts | 88° |
| 2026-05-01 14:58 | 49.00820 | 2.78964 | 4519 ft | 279 kts | 87° |
| 2026-05-01 14:58 | 49.00971 | 2.81929 | 5226 ft | 280 kts | 87° |
| 2026-05-01 14:58 | 49.01351 | 2.84837 | 5710 ft | 285 kts | 64° |
| 2026-05-01 14:59 | 49.02614 | 2.87197 | 6235 ft | 292 kts | 35° |
| 2026-05-01 14:59 | 49.04442 | 2.88426 | 6856 ft | 294 kts | 10° |
| 2026-05-01 14:59 | 49.06500 | 2.88412 | 7346 ft | 299 kts | 346° |
| 2026-05-01 14:59 | 49.08460 | 2.87350 | 7822 ft | 302 kts | 335° |
| 2026-05-01 15:00 | 49.12304 | 2.84604 | 8998 ft | 307 kts | 333° |
| 2026-05-01 15:00 | 49.14248 | 2.83178 | 9518 ft | 312 kts | 333° |
| 2026-05-01 15:00 | 49.16222 | 2.81738 | 10090 ft | 316 kts | 333° |
| 2026-05-01 15:01 | 49.18218 | 2.80287 | 10509 ft | 324 kts | 334° |
| 2026-05-01 15:01 | 49.20323 | 2.78770 | 10634 ft | 343 kts | 334° |
| 2026-05-01 15:01 | 49.22510 | 2.77200 | 10797 ft | 361 kts | 334° |
| 2026-05-01 15:01 | 49.24846 | 2.75528 | 10956 ft | 379 kts | 334° |
| 2026-05-01 15:02 | 49.27276 | 2.73792 | 11339 ft | 390 kts | 334° |
| 2026-05-01 15:02 | 49.28115 | 2.73194 | 11492 ft | 393 kts | 334° |
| 2026-05-01 15:02 | 49.32292 | 2.70209 | 12435 ft | 402 kts | 334° |
| 2026-05-01 15:02 | 49.34844 | 2.68390 | 13034 ft | 407 kts | 334° |
| 2026-05-01 15:03 | 49.37428 | 2.66545 | 13660 ft | 411 kts | 334° |
| 2026-05-01 15:03 | 49.40030 | 2.64683 | 14244 ft | 416 kts | 334° |
| 2026-05-01 15:03 | 49.42669 | 2.62793 | 14800 ft | 419 kts | 334° |
| 2026-05-01 15:03 | 49.45371 | 2.60855 | 15390 ft | 423 kts | 334° |
| 2026-05-01 15:04 | 49.47999 | 2.58965 | 15924 ft | 427 kts | 334° |
| 2026-05-01 15:04 | 49.50703 | 2.57019 | 16467 ft | 431 kts | 334° |
| 2026-05-01 15:04 | 49.53429 | 2.55055 | 17016 ft | 434 kts | 334° |
| 2026-05-01 15:04 | 49.56179 | 2.53071 | 17564 ft | 438 kts | 334° |
| 2026-05-01 15:05 | 49.58913 | 2.51098 | 18105 ft | 442 kts | 334° |
| 2026-05-01 15:05 | 49.61704 | 2.49082 | 18619 ft | 445 kts | 334° |
| 2026-05-01 15:05 | 49.64523 | 2.47042 | 19097 ft | 448 kts | 334° |
| 2026-05-01 15:05 | 49.67360 | 2.44985 | 19583 ft | 451 kts | 334° |
| 2026-05-01 15:06 | 49.70214 | 2.42913 | 20051 ft | 454 kts | 334° |
| 2026-05-01 15:06 | 49.73084 | 2.40826 | 20530 ft | 458 kts | 334° |
| 2026-05-01 15:06 | 49.75975 | 2.38723 | 20974 ft | 461 kts | 334° |
| 2026-05-01 15:06 | 49.78895 | 2.36609 | 21419 ft | 464 kts | 336° |
| 2026-05-01 15:07 | 49.81881 | 2.34690 | 21867 ft | 467 kts | 339° |
| 2026-05-01 15:07 | 49.84905 | 2.32949 | 22309 ft | 470 kts | 340° |
| 2026-05-01 15:07 | 49.87998 | 2.31238 | 22745 ft | 473 kts | 341° |
| 2026-05-01 15:07 | 49.91107 | 2.29519 | 23181 ft | 476 kts | 340° |
| 2026-05-01 15:08 | 49.94238 | 2.27761 | 23598 ft | 479 kts | 340° |
| 2026-05-01 15:08 | 49.97374 | 2.25970 | 23988 ft | 482 kts | 340° |
| 2026-05-01 15:08 | 49.99458 | 2.24768 | 24223 ft | 484 kts | 340° |
| 2026-05-01 15:08 | 50.03692 | 2.22306 | 24714 ft | 486 kts | 340° |
| 2026-05-01 15:09 | 50.05798 | 2.21077 | 24955 ft | 488 kts | 340° |
| 2026-05-01 15:09 | 50.10062 | 2.18584 | 25429 ft | 491 kts | 340° |
| 2026-05-01 15:09 | 50.13270 | 2.16707 | 25773 ft | 493 kts | 340° |
| 2026-05-01 15:09 | 50.16489 | 2.14823 | 26110 ft | 495 kts | 340° |
| 2026-05-01 15:10 | 50.18628 | 2.13569 | 26328 ft | 497 kts | 339° |
| 2026-05-01 15:10 | 50.26187 | 2.09130 | 27070 ft | 502 kts | 339° |
| 2026-05-01 15:10 | 50.29471 | 2.07198 | 27396 ft | 504 kts | 339° |
| 2026-05-01 15:11 | 50.32751 | 2.05226 | 27694 ft | 506 kts | 337° |
| 2026-05-01 15:11 | 50.37942 | 2.00942 | 28172 ft | 508 kts | 327° |
| 2026-05-01 15:11 | 50.41788 | 1.96619 | 28563 ft | 509 kts | 319° |
| 2026-05-01 15:12 | 50.43571 | 1.94210 | 28756 ft | 510 kts | 317° |
| 2026-05-01 15:12 | 50.48893 | 1.86791 | 29262 ft | 514 kts | 317° |
| 2026-05-01 15:12 | 50.51576 | 1.83055 | 29501 ft | 516 kts | 317° |
| 2026-05-01 15:13 | 50.59732 | 1.71842 | 30102 ft | 522 kts | 317° |
| 2026-05-01 15:14 | 50.65219 | 1.64298 | 30185 ft | 523 kts | 317° |